sensor_id;sensor_type;location;lat;lon;timestamp;temperature;humidity
79356;SHT31;68825;51.978;5.654;2024-01-10T00:00:20;-1.3;44.4
79356;SHT31;68825;51.978;5.654;2024-01-10T00:02:49;-1.3;44.6
79356;SHT31;68825;51.978;5.654;2024-01-10T00:05:18;-1.3;43.7
79356;SHT31;68825;51.978;5.654;2024-01-10T00:07:47;-1.3;44.1
79356;SHT31;68825;51.978;5.654;2024-01-10T00:10:15;-1.3;44.0
79356;SHT31;68825;51.978;5.654;2024-01-10T00:12:44;-1.3;43.8
79356;SHT31;68825;51.978;5.654;2024-01-10T00:15:13;-1.3;44.2
79356;SHT31;68825;51.978;5.654;2024-01-10T00:17:41;-1.3;44.2
79356;SHT31;68825;51.978;5.654;2024-01-10T00:20:10;-1.3;44.4
79356;SHT31;68825;51.978;5.654;2024-01-10T00:22:39;-1.3;44.5
79356;SHT31;68825;51.978;5.654;2024-01-10T00:25:08;-1.3;44.5
79356;SHT31;68825;51.978;5.654;2024-01-10T00:27:36;-1.3;44.8
79356;SHT31;68825;51.978;5.654;2024-01-10T00:30:06;-1.3;46.0
79356;SHT31;68825;51.978;5.654;2024-01-10T00:32:35;-1.3;45.4
79356;SHT31;68825;51.978;5.654;2024-01-10T00:35:06;-1.3;45.0
79356;SHT31;68825;51.978;5.654;2024-01-10T00:37:35;-1.3;45.8
79356;SHT31;68825;51.978;5.654;2024-01-10T00:40:03;-1.3;45.8
79356;SHT31;68825;51.978;5.654;2024-01-10T00:42:32;-1.3;46.3
79356;SHT31;68825;51.978;5.654;2024-01-10T00:45:01;-1.3;45.5
79356;SHT31;68825;51.978;5.654;2024-01-10T00:47:30;-1.3;45.4
79356;SHT31;68825;51.978;5.654;2024-01-10T00:49:58;-1.4;45.5
79356;SHT31;68825;51.978;5.654;2024-01-10T00:52:27;-1.4;45.7
79356;SHT31;68825;51.978;5.654;2024-01-10T00:54:55;-1.4;45.5
79356;SHT31;68825;51.978;5.654;2024-01-10T00:57:24;-1.5;45.6
79356;SHT31;68825;51.978;5.654;2024-01-10T00:59:52;-1.5;46.2
79356;SHT31;68825;51.978;5.654;2024-01-10T01:02:21;-1.6;46.2
79356;SHT31;68825;51.978;5.654;2024-01-10T01:04:49;-1.7;47.0
79356;SHT31;68825;51.978;5.654;2024-01-10T01:07:18;-1.7;47.1
79356;SHT31;68825;51.978;5.654;2024-01-10T01:09:46;-1.8;47.4
79356;SHT31;68825;51.978;5.654;2024-01-10T01:12:15;-1.9;47.5
79356;SHT31;68825;51.978;5.654;2024-01-10T01:14:44;-1.9;47.4
79356;SHT31;68825;51.978;5.654;2024-01-10T01:17:12;-1.9;47.8
79356;SHT31;68825;51.978;5.654;2024-01-10T01:19:41;-2.0;48.2
79356;SHT31;68825;51.978;5.654;2024-01-10T01:22:09;-2.0;48.3
79356;SHT31;68825;51.978;5.654;2024-01-10T01:24:38;-2.0;48.0
79356;SHT31;68825;51.978;5.654;2024-01-10T01:27:06;-2.0;48.2
79356;SHT31;68825;51.978;5.654;2024-01-10T01:29:35;-2.0;48.7
79356;SHT31;68825;51.978;5.654;2024-01-10T01:32:04;-2.0;49.0
79356;SHT31;68825;51.978;5.654;2024-01-10T01:34:32;-2.0;48.5
79356;SHT31;68825;51.978;5.654;2024-01-10T01:37:01;-2.0;48.9
79356;SHT31;68825;51.978;5.654;2024-01-10T01:39:30;-2.0;49.6
79356;SHT31;68825;51.978;5.654;2024-01-10T01:41:59;-2.0;49.2
79356;SHT31;68825;51.978;5.654;2024-01-10T01:44:27;-2.0;49.6
79356;SHT31;68825;51.978;5.654;2024-01-10T01:46:56;-2.0;48.9
79356;SHT31;68825;51.978;5.654;2024-01-10T01:49:24;-1.9;48.9
79356;SHT31;68825;51.978;5.654;2024-01-10T01:51:53;-1.9;49.3
79356;SHT31;68825;51.978;5.654;2024-01-10T01:54:23;-1.9;49.4
79356;SHT31;68825;51.978;5.654;2024-01-10T01:56:52;-1.9;49.8
79356;SHT31;68825;51.978;5.654;2024-01-10T01:59:23;-1.9;50.6
79356;SHT31;68825;51.978;5.654;2024-01-10T02:01:54;-1.9;49.7
79356;SHT31;68825;51.978;5.654;2024-01-10T02:04:25;-1.8;49.6
79356;SHT31;68825;51.978;5.654;2024-01-10T02:06:56;-1.8;50.3
79356;SHT31;68825;51.978;5.654;2024-01-10T02:09:25;-1.8;49.0
79356;SHT31;68825;51.978;5.654;2024-01-10T02:11:54;-1.8;48.8
79356;SHT31;68825;51.978;5.654;2024-01-10T02:14:23;-1.8;48.5
79356;SHT31;68825;51.978;5.654;2024-01-10T02:16:52;-1.8;49.2
79356;SHT31;68825;51.978;5.654;2024-01-10T02:19:23;-1.8;48.9
79356;SHT31;68825;51.978;5.654;2024-01-10T02:21:53;-1.8;49.2
79356;SHT31;68825;51.978;5.654;2024-01-10T02:24:22;-1.9;49.4
79356;SHT31;68825;51.978;5.654;2024-01-10T02:26:51;-1.9;49.7
79356;SHT31;68825;51.978;5.654;2024-01-10T02:29:19;-1.9;49.3
79356;SHT31;68825;51.978;5.654;2024-01-10T02:31:50;-1.9;49.7
79356;SHT31;68825;51.978;5.654;2024-01-10T02:34:18;-2.0;50.5
79356;SHT31;68825;51.978;5.654;2024-01-10T02:36:47;-2.0;50.0
79356;SHT31;68825;51.978;5.654;2024-01-10T02:39:15;-2.0;49.4
79356;SHT31;68825;51.978;5.654;2024-01-10T02:41:44;-2.0;49.5
79356;SHT31;68825;51.978;5.654;2024-01-10T02:44:12;-2.0;50.1
79356;SHT31;68825;51.978;5.654;2024-01-10T02:46:43;-2.0;49.6
79356;SHT31;68825;51.978;5.654;2024-01-10T02:49:12;-2.0;49.8
79356;SHT31;68825;51.978;5.654;2024-01-10T02:51:40;-2.0;49.7
79356;SHT31;68825;51.978;5.654;2024-01-10T02:54:09;-2.0;49.9
79356;SHT31;68825;51.978;5.654;2024-01-10T02:56:38;-2.1;50.4
79356;SHT31;68825;51.978;5.654;2024-01-10T02:59:06;-2.1;50.5
79356;SHT31;68825;51.978;5.654;2024-01-10T03:01:35;-2.0;50.8
79356;SHT31;68825;51.978;5.654;2024-01-10T03:04:03;-2.0;50.6
79356;SHT31;68825;51.978;5.654;2024-01-10T03:06:34;-2.0;50.5
79356;SHT31;68825;51.978;5.654;2024-01-10T03:09:02;-2.0;50.3
79356;SHT31;68825;51.978;5.654;2024-01-10T03:11:31;-2.0;50.4
79356;SHT31;68825;51.978;5.654;2024-01-10T03:14:03;-2.1;50.4
79356;SHT31;68825;51.978;5.654;2024-01-10T03:16:33;-2.1;50.6
79356;SHT31;68825;51.978;5.654;2024-01-10T03:19:02;-2.1;50.5
79356;SHT31;68825;51.978;5.654;2024-01-10T03:21:31;-2.1;51.1
79356;SHT31;68825;51.978;5.654;2024-01-10T03:24:01;-2.1;50.7
79356;SHT31;68825;51.978;5.654;2024-01-10T03:26:29;-2.1;50.6
79356;SHT31;68825;51.978;5.654;2024-01-10T03:28:58;-2.1;50.5
79356;SHT31;68825;51.978;5.654;2024-01-10T03:31:28;-2.1;51.0
79356;SHT31;68825;51.978;5.654;2024-01-10T03:33:56;-2.2;50.8
79356;SHT31;68825;51.978;5.654;2024-01-10T03:36:28;-2.2;51.1
79356;SHT31;68825;51.978;5.654;2024-01-10T03:38:58;-2.2;51.3
79356;SHT31;68825;51.978;5.654;2024-01-10T03:41:27;-2.2;51.8
79356;SHT31;68825;51.978;5.654;2024-01-10T03:43:55;-2.3;51.8
79356;SHT31;68825;51.978;5.654;2024-01-10T03:46:23;-2.3;51.6
79356;SHT31;68825;51.978;5.654;2024-01-10T03:48:52;-2.3;52.5
79356;SHT31;68825;51.978;5.654;2024-01-10T03:51:21;-2.3;52.6
79356;SHT31;68825;51.978;5.654;2024-01-10T03:53:52;-2.3;52.2
79356;SHT31;68825;51.978;5.654;2024-01-10T03:56:23;-2.3;52.3
79356;SHT31;68825;51.978;5.654;2024-01-10T03:58:52;-2.3;52.5
79356;SHT31;68825;51.978;5.654;2024-01-10T04:01:23;-2.3;53.0
79356;SHT31;68825;51.978;5.654;2024-01-10T04:03:52;-2.3;53.0
79356;SHT31;68825;51.978;5.654;2024-01-10T04:06:20;-2.3;52.7
79356;SHT31;68825;51.978;5.654;2024-01-10T04:08:50;-2.3;52.7
79356;SHT31;68825;51.978;5.654;2024-01-10T04:11:19;-2.3;52.5
79356;SHT31;68825;51.978;5.654;2024-01-10T04:13:47;-2.3;53.8
79356;SHT31;68825;51.978;5.654;2024-01-10T04:16:16;-2.3;52.8
79356;SHT31;68825;51.978;5.654;2024-01-10T04:18:44;-2.3;53.3
79356;SHT31;68825;51.978;5.654;2024-01-10T04:21:13;-2.3;52.8
79356;SHT31;68825;51.978;5.654;2024-01-10T04:23:43;-2.3;53.2
79356;SHT31;68825;51.978;5.654;2024-01-10T04:26:12;-2.4;53.6
79356;SHT31;68825;51.978;5.654;2024-01-10T04:28:40;-2.4;52.8
79356;SHT31;68825;51.978;5.654;2024-01-10T04:31:11;-2.4;53.3
79356;SHT31;68825;51.978;5.654;2024-01-10T04:33:39;-2.4;53.2
79356;SHT31;68825;51.978;5.654;2024-01-10T04:36:08;-2.4;53.6
79356;SHT31;68825;51.978;5.654;2024-01-10T04:38:37;-2.4;53.2
79356;SHT31;68825;51.978;5.654;2024-01-10T04:41:05;-2.5;53.4
79356;SHT31;68825;51.978;5.654;2024-01-10T04:43:34;-2.5;53.8
79356;SHT31;68825;51.978;5.654;2024-01-10T04:46:02;-2.5;53.7
79356;SHT31;68825;51.978;5.654;2024-01-10T04:48:31;-2.5;53.5
79356;SHT31;68825;51.978;5.654;2024-01-10T04:51:00;-2.5;53.7
79356;SHT31;68825;51.978;5.654;2024-01-10T04:53:30;-2.5;53.4
79356;SHT31;68825;51.978;5.654;2024-01-10T04:55:59;-2.5;53.7
79356;SHT31;68825;51.978;5.654;2024-01-10T04:58:29;-2.5;53.2
79356;SHT31;68825;51.978;5.654;2024-01-10T05:00:59;-2.6;53.2
79356;SHT31;68825;51.978;5.654;2024-01-10T05:03:28;-2.6;53.8
79356;SHT31;68825;51.978;5.654;2024-01-10T05:05:56;-2.6;54.0
79356;SHT31;68825;51.978;5.654;2024-01-10T05:08:26;-2.6;54.4
79356;SHT31;68825;51.978;5.654;2024-01-10T05:10:56;-2.6;54.4
79356;SHT31;68825;51.978;5.654;2024-01-10T05:13:25;-2.6;54.0
79356;SHT31;68825;51.978;5.654;2024-01-10T05:15:53;-2.6;54.3
79356;SHT31;68825;51.978;5.654;2024-01-10T05:18:22;-2.6;54.0
79356;SHT31;68825;51.978;5.654;2024-01-10T05:20:51;-2.6;53.6
79356;SHT31;68825;51.978;5.654;2024-01-10T05:23:19;-2.7;53.9
79356;SHT31;68825;51.978;5.654;2024-01-10T05:25:48;-2.7;54.3
79356;SHT31;68825;51.978;5.654;2024-01-10T05:28:17;-2.7;54.4
79356;SHT31;68825;51.978;5.654;2024-01-10T05:30:46;-2.7;54.4
79356;SHT31;68825;51.978;5.654;2024-01-10T05:33:14;-2.7;55.2
79356;SHT31;68825;51.978;5.654;2024-01-10T05:35:43;-2.7;54.7
79356;SHT31;68825;51.978;5.654;2024-01-10T05:38:11;-2.7;54.4
79356;SHT31;68825;51.978;5.654;2024-01-10T05:40:40;-2.8;54.7
79356;SHT31;68825;51.978;5.654;2024-01-10T05:43:09;-2.8;54.6
79356;SHT31;68825;51.978;5.654;2024-01-10T05:45:39;-2.8;54.7
79356;SHT31;68825;51.978;5.654;2024-01-10T05:48:07;-2.8;54.4
79356;SHT31;68825;51.978;5.654;2024-01-10T05:50:36;-2.8;54.4
79356;SHT31;68825;51.978;5.654;2024-01-10T05:53:05;-2.8;54.6
79356;SHT31;68825;51.978;5.654;2024-01-10T05:55:35;-2.8;54.4
79356;SHT31;68825;51.978;5.654;2024-01-10T05:58:04;-2.8;54.8
79356;SHT31;68825;51.978;5.654;2024-01-10T06:00:32;-2.8;54.4
79356;SHT31;68825;51.978;5.654;2024-01-10T06:03:01;-2.8;54.7
79356;SHT31;68825;51.978;5.654;2024-01-10T06:05:29;-2.8;54.8
79356;SHT31;68825;51.978;5.654;2024-01-10T06:08:00;-2.9;54.6
79356;SHT31;68825;51.978;5.654;2024-01-10T06:10:30;-2.9;54.8
79356;SHT31;68825;51.978;5.654;2024-01-10T06:12:58;-2.9;55.3
79356;SHT31;68825;51.978;5.654;2024-01-10T06:15:27;-2.9;55.3
79356;SHT31;68825;51.978;5.654;2024-01-10T06:17:56;-2.9;55.4
79356;SHT31;68825;51.978;5.654;2024-01-10T06:20:24;-2.9;55.0
79356;SHT31;68825;51.978;5.654;2024-01-10T06:22:53;-2.9;55.4
79356;SHT31;68825;51.978;5.654;2024-01-10T06:25:21;-2.9;55.1
79356;SHT31;68825;51.978;5.654;2024-01-10T06:27:50;-2.9;54.6
79356;SHT31;68825;51.978;5.654;2024-01-10T06:30:20;-2.9;55.0
79356;SHT31;68825;51.978;5.654;2024-01-10T06:32:49;-2.9;54.8
79356;SHT31;68825;51.978;5.654;2024-01-10T06:35:19;-2.9;54.7
79356;SHT31;68825;51.978;5.654;2024-01-10T06:37:47;-2.9;54.9
79356;SHT31;68825;51.978;5.654;2024-01-10T06:40:16;-2.9;54.9
79356;SHT31;68825;51.978;5.654;2024-01-10T06:42:45;-2.9;54.9
79356;SHT31;68825;51.978;5.654;2024-01-10T06:45:14;-2.9;54.6
79356;SHT31;68825;51.978;5.654;2024-01-10T06:47:42;-2.9;54.9
79356;SHT31;68825;51.978;5.654;2024-01-10T06:50:11;-2.9;54.8
79356;SHT31;68825;51.978;5.654;2024-01-10T06:52:40;-2.9;54.7
79356;SHT31;68825;51.978;5.654;2024-01-10T06:55:09;-2.9;54.7
79356;SHT31;68825;51.978;5.654;2024-01-10T06:57:38;-2.9;55.3
79356;SHT31;68825;51.978;5.654;2024-01-10T07:00:07;-2.9;54.6
79356;SHT31;68825;51.978;5.654;2024-01-10T07:02:37;-2.9;55.0
79356;SHT31;68825;51.978;5.654;2024-01-10T07:05:09;-2.9;55.0
79356;SHT31;68825;51.978;5.654;2024-01-10T07:07:38;-2.9;54.6
79356;SHT31;68825;51.978;5.654;2024-01-10T07:10:07;-2.9;54.7
79356;SHT31;68825;51.978;5.654;2024-01-10T07:12:35;-2.9;54.8
79356;SHT31;68825;51.978;5.654;2024-01-10T07:15:05;-2.8;54.5
79356;SHT31;68825;51.978;5.654;2024-01-10T07:17:34;-2.8;54.4
79356;SHT31;68825;51.978;5.654;2024-01-10T07:20:03;-2.8;54.4
79356;SHT31;68825;51.978;5.654;2024-01-10T07:22:34;-2.8;54.5
79356;SHT31;68825;51.978;5.654;2024-01-10T07:25:06;-2.9;54.5
79356;SHT31;68825;51.978;5.654;2024-01-10T07:27:35;-2.9;54.8
79356;SHT31;68825;51.978;5.654;2024-01-10T07:30:05;-2.9;54.4
79356;SHT31;68825;51.978;5.654;2024-01-10T07:32:39;-2.9;54.8
79356;SHT31;68825;51.978;5.654;2024-01-10T07:35:09;-2.9;54.4
79356;SHT31;68825;51.978;5.654;2024-01-10T07:37:39;-2.9;54.3
79356;SHT31;68825;51.978;5.654;2024-01-10T07:40:11;-2.9;54.5
79356;SHT31;68825;51.978;5.654;2024-01-10T07:42:40;-2.9;55.7
79356;SHT31;68825;51.978;5.654;2024-01-10T07:45:09;-2.9;55.4
79356;SHT31;68825;51.978;5.654;2024-01-10T07:47:38;-2.9;55.0
79356;SHT31;68825;51.978;5.654;2024-01-10T07:50:08;-2.9;54.9
79356;SHT31;68825;51.978;5.654;2024-01-10T07:52:41;-2.9;55.0
79356;SHT31;68825;51.978;5.654;2024-01-10T07:55:12;-2.9;55.9
79356;SHT31;68825;51.978;5.654;2024-01-10T07:57:42;-2.8;56.0
79356;SHT31;68825;51.978;5.654;2024-01-10T08:00:11;-2.8;55.5
79356;SHT31;68825;51.978;5.654;2024-01-10T08:02:40;-2.8;54.3
79356;SHT31;68825;51.978;5.654;2024-01-10T08:05:09;-2.8;54.4
79356;SHT31;68825;51.978;5.654;2024-01-10T08:07:39;-2.8;54.5
79356;SHT31;68825;51.978;5.654;2024-01-10T08:10:09;-2.8;54.8
79356;SHT31;68825;51.978;5.654;2024-01-10T08:12:40;-2.8;54.2
79356;SHT31;68825;51.978;5.654;2024-01-10T08:15:10;-2.8;54.2
79356;SHT31;68825;51.978;5.654;2024-01-10T08:17:38;-2.8;54.2
79356;SHT31;68825;51.978;5.654;2024-01-10T08:20:08;-2.8;54.9
79356;SHT31;68825;51.978;5.654;2024-01-10T08:22:37;-2.8;54.4
79356;SHT31;68825;51.978;5.654;2024-01-10T08:25:09;-2.8;54.7
79356;SHT31;68825;51.978;5.654;2024-01-10T08:27:39;-2.8;54.1
79356;SHT31;68825;51.978;5.654;2024-01-10T08:30:08;-2.8;53.6
79356;SHT31;68825;51.978;5.654;2024-01-10T08:32:37;-2.8;54.2
79356;SHT31;68825;51.978;5.654;2024-01-10T08:35:12;-2.8;53.6
79356;SHT31;68825;51.978;5.654;2024-01-10T08:37:41;-2.7;53.4
79356;SHT31;68825;51.978;5.654;2024-01-10T08:40:11;-2.7;53.4
79356;SHT31;68825;51.978;5.654;2024-01-10T08:42:41;-2.7;53.1
79356;SHT31;68825;51.978;5.654;2024-01-10T08:45:10;-2.7;52.8
79356;SHT31;68825;51.978;5.654;2024-01-10T08:47:41;-2.7;52.0
79356;SHT31;68825;51.978;5.654;2024-01-10T08:50:10;-2.7;52.6
79356;SHT31;68825;51.978;5.654;2024-01-10T08:52:39;-2.7;51.9
79356;SHT31;68825;51.978;5.654;2024-01-10T08:55:08;-2.7;52.3
79356;SHT31;68825;51.978;5.654;2024-01-10T08:57:37;-2.6;52.3
79356;SHT31;68825;51.978;5.654;2024-01-10T09:00:06;-2.6;51.6
79356;SHT31;68825;51.978;5.654;2024-01-10T09:02:38;-2.6;52.0
79356;SHT31;68825;51.978;5.654;2024-01-10T09:05:07;-2.5;51.9
79356;SHT31;68825;51.978;5.654;2024-01-10T09:07:36;-2.5;51.3
79356;SHT31;68825;51.978;5.654;2024-01-10T09:10:06;-2.4;50.9
79356;SHT31;68825;51.978;5.654;2024-01-10T09:12:36;-2.4;51.7
79356;SHT31;68825;51.978;5.654;2024-01-10T09:15:05;-2.4;51.9
79356;SHT31;68825;51.978;5.654;2024-01-10T09:17:34;-2.3;51.7
79356;SHT31;68825;51.978;5.654;2024-01-10T09:20:04;-2.2;50.8
79356;SHT31;68825;51.978;5.654;2024-01-10T09:22:34;-2.1;49.9
79356;SHT31;68825;51.978;5.654;2024-01-10T09:25:04;-2.0;49.8
79356;SHT31;68825;51.978;5.654;2024-01-10T09:27:33;-2.0;49.9
79356;SHT31;68825;51.978;5.654;2024-01-10T09:30:05;-1.9;49.4
79356;SHT31;68825;51.978;5.654;2024-01-10T09:32:35;-1.9;48.9
79356;SHT31;68825;51.978;5.654;2024-01-10T09:35:04;-1.8;48.0
79356;SHT31;68825;51.978;5.654;2024-01-10T09:37:33;-1.7;48.0
79356;SHT31;68825;51.978;5.654;2024-01-10T09:40:02;-1.7;47.0
79356;SHT31;68825;51.978;5.654;2024-01-10T09:42:30;-1.6;47.1
79356;SHT31;68825;51.978;5.654;2024-01-10T09:45:02;-1.6;48.1
79356;SHT31;68825;51.978;5.654;2024-01-10T09:47:36;-1.5;47.2
79356;SHT31;68825;51.978;5.654;2024-01-10T09:50:06;-1.5;46.3
79356;SHT31;68825;51.978;5.654;2024-01-10T09:52:41;-1.4;46.5
79356;SHT31;68825;51.978;5.654;2024-01-10T09:55:12;-1.3;46.7
79356;SHT31;68825;51.978;5.654;2024-01-10T09:57:43;-1.3;46.1
79356;SHT31;68825;51.978;5.654;2024-01-10T10:00:17;-1.2;46.7
79356;SHT31;68825;51.978;5.654;2024-01-10T10:02:47;-1.1;45.9
79356;SHT31;68825;51.978;5.654;2024-01-10T10:05:17;-1.1;45.2
79356;SHT31;68825;51.978;5.654;2024-01-10T10:07:48;-1.0;45.0
79356;SHT31;68825;51.978;5.654;2024-01-10T10:10:18;-1.0;44.6
79356;SHT31;68825;51.978;5.654;2024-01-10T10:12:48;-0.9;43.9
79356;SHT31;68825;51.978;5.654;2024-01-10T10:15:19;-0.9;43.9
79356;SHT31;68825;51.978;5.654;2024-01-10T10:17:49;-0.8;43.9
79356;SHT31;68825;51.978;5.654;2024-01-10T10:20:23;-0.8;43.6
79356;SHT31;68825;51.978;5.654;2024-01-10T10:23:03;-0.7;44.3
79356;SHT31;68825;51.978;5.654;2024-01-10T10:25:34;-0.6;43.0
79356;SHT31;68825;51.978;5.654;2024-01-10T10:28:05;-0.6;43.0
79356;SHT31;68825;51.978;5.654;2024-01-10T10:30:34;-0.5;43.2
79356;SHT31;68825;51.978;5.654;2024-01-10T10:33:05;-0.5;43.6
79356;SHT31;68825;51.978;5.654;2024-01-10T10:35:34;-0.4;43.7
79356;SHT31;68825;51.978;5.654;2024-01-10T10:38:03;-0.3;43.5
79356;SHT31;68825;51.978;5.654;2024-01-10T10:40:31;-0.2;42.0
79356;SHT31;68825;51.978;5.654;2024-01-10T10:43:04;-0.1;42.0
79356;SHT31;68825;51.978;5.654;2024-01-10T10:45:35;-0.1;41.1
79356;SHT31;68825;51.978;5.654;2024-01-10T10:48:08;0.0;40.8
79356;SHT31;68825;51.978;5.654;2024-01-10T10:50:41;0.1;40.0
79356;SHT31;68825;51.978;5.654;2024-01-10T10:53:10;0.1;40.9
79356;SHT31;68825;51.978;5.654;2024-01-10T10:55:40;0.2;40.6
79356;SHT31;68825;51.978;5.654;2024-01-10T10:58:10;0.3;40.3
79356;SHT31;68825;51.978;5.654;2024-01-10T11:00:40;0.4;40.7
79356;SHT31;68825;51.978;5.654;2024-01-10T11:03:10;0.5;39.5
79356;SHT31;68825;51.978;5.654;2024-01-10T11:05:41;0.6;40.0
79356;SHT31;68825;51.978;5.654;2024-01-10T11:08:12;0.7;39.3
79356;SHT31;68825;51.978;5.654;2024-01-10T11:10:45;0.8;39.0
79356;SHT31;68825;51.978;5.654;2024-01-10T11:13:27;0.9;38.5
79356;SHT31;68825;51.978;5.654;2024-01-10T11:16:21;1.0;38.2
79356;SHT31;68825;51.978;5.654;2024-01-10T11:19:06;1.2;37.8
79356;SHT31;68825;51.978;5.654;2024-01-10T11:21:49;1.2;38.2
79356;SHT31;68825;51.978;5.654;2024-01-10T11:24:20;1.3;37.6
79356;SHT31;68825;51.978;5.654;2024-01-10T11:26:50;1.4;36.6
79356;SHT31;68825;51.978;5.654;2024-01-10T11:29:25;1.5;36.8
79356;SHT31;68825;51.978;5.654;2024-01-10T11:31:58;1.5;36.3
79356;SHT31;68825;51.978;5.654;2024-01-10T11:34:26;1.6;36.9
79356;SHT31;68825;51.978;5.654;2024-01-10T11:37:16;1.7;37.8
79356;SHT31;68825;51.978;5.654;2024-01-10T11:39:45;1.8;36.9
79356;SHT31;68825;51.978;5.654;2024-01-10T11:42:23;1.8;36.4
79356;SHT31;68825;51.978;5.654;2024-01-10T11:44:52;1.9;36.2
79356;SHT31;68825;51.978;5.654;2024-01-10T11:47:21;2.0;35.0
79356;SHT31;68825;51.978;5.654;2024-01-10T11:49:58;2.1;35.5
79356;SHT31;68825;51.978;5.654;2024-01-10T11:52:34;2.1;36.3
79356;SHT31;68825;51.978;5.654;2024-01-10T11:55:03;2.2;35.8
79356;SHT31;68825;51.978;5.654;2024-01-10T11:57:33;2.2;34.8
79356;SHT31;68825;51.978;5.654;2024-01-10T12:00:03;2.2;36.1
79356;SHT31;68825;51.978;5.654;2024-01-10T12:02:35;2.2;35.1
79356;SHT31;68825;51.978;5.654;2024-01-10T12:05:04;2.3;35.2
79356;SHT31;68825;51.978;5.654;2024-01-10T12:07:33;2.3;36.0
79356;SHT31;68825;51.978;5.654;2024-01-10T12:10:02;2.3;35.0
79356;SHT31;68825;51.978;5.654;2024-01-10T12:12:30;2.4;34.9
79356;SHT31;68825;51.978;5.654;2024-01-10T12:14:59;2.5;34.4
79356;SHT31;68825;51.978;5.654;2024-01-10T12:17:28;2.5;35.2
79356;SHT31;68825;51.978;5.654;2024-01-10T12:19:57;2.5;34.4
79356;SHT31;68825;51.978;5.654;2024-01-10T12:22:26;2.5;33.9
79356;SHT31;68825;51.978;5.654;2024-01-10T12:24:56;2.5;34.4
79356;SHT31;68825;51.978;5.654;2024-01-10T12:27:30;2.5;34.3
79356;SHT31;68825;51.978;5.654;2024-01-10T12:30:00;2.5;34.6
79356;SHT31;68825;51.978;5.654;2024-01-10T12:32:29;2.5;34.7
79356;SHT31;68825;51.978;5.654;2024-01-10T12:35:04;2.5;35.3
79356;SHT31;68825;51.978;5.654;2024-01-10T12:37:34;2.5;37.0
79356;SHT31;68825;51.978;5.654;2024-01-10T12:40:03;2.6;35.1
79356;SHT31;68825;51.978;5.654;2024-01-10T12:42:33;2.6;34.7
79356;SHT31;68825;51.978;5.654;2024-01-10T12:45:02;2.5;34.6
79356;SHT31;68825;51.978;5.654;2024-01-10T12:47:30;2.5;34.7
79356;SHT31;68825;51.978;5.654;2024-01-10T12:50:01;2.5;34.8
79356;SHT31;68825;51.978;5.654;2024-01-10T12:52:30;2.5;35.0
79356;SHT31;68825;51.978;5.654;2024-01-10T12:55:02;2.5;35.0
79356;SHT31;68825;51.978;5.654;2024-01-10T12:57:31;2.5;35.2
79356;SHT31;68825;51.978;5.654;2024-01-10T12:59:59;2.5;35.3
79356;SHT31;68825;51.978;5.654;2024-01-10T13:02:33;2.5;35.4
79356;SHT31;68825;51.978;5.654;2024-01-10T13:05:04;2.5;35.1
79356;SHT31;68825;51.978;5.654;2024-01-10T13:07:35;2.5;35.0
79356;SHT31;68825;51.978;5.654;2024-01-10T13:10:04;2.5;35.0
79356;SHT31;68825;51.978;5.654;2024-01-10T13:12:33;2.5;35.6
79356;SHT31;68825;51.978;5.654;2024-01-10T13:15:01;2.6;35.3
79356;SHT31;68825;51.978;5.654;2024-01-10T13:17:31;2.6;35.7
79356;SHT31;68825;51.978;5.654;2024-01-10T13:19:59;2.6;35.3
79356;SHT31;68825;51.978;5.654;2024-01-10T13:22:29;2.6;35.7
79356;SHT31;68825;51.978;5.654;2024-01-10T13:24:58;2.6;36.5
79356;SHT31;68825;51.978;5.654;2024-01-10T13:27:27;2.6;36.6
79356;SHT31;68825;51.978;5.654;2024-01-10T13:29:55;2.6;36.1
79356;SHT31;68825;51.978;5.654;2024-01-10T13:32:24;2.6;36.7
79356;SHT31;68825;51.978;5.654;2024-01-10T13:34:54;2.7;35.9
79356;SHT31;68825;51.978;5.654;2024-01-10T13:37:23;2.7;36.9
79356;SHT31;68825;51.978;5.654;2024-01-10T13:39:55;2.7;37.4
79356;SHT31;68825;51.978;5.654;2024-01-10T13:42:24;2.8;36.1
79356;SHT31;68825;51.978;5.654;2024-01-10T13:44:53;2.8;35.7
79356;SHT31;68825;51.978;5.654;2024-01-10T13:47:21;2.8;36.2
79356;SHT31;68825;51.978;5.654;2024-01-10T13:49:50;2.8;35.3
79356;SHT31;68825;51.978;5.654;2024-01-10T13:52:19;2.8;35.7
79356;SHT31;68825;51.978;5.654;2024-01-10T13:54:47;2.8;36.1
79356;SHT31;68825;51.978;5.654;2024-01-10T13:57:16;2.8;36.6
79356;SHT31;68825;51.978;5.654;2024-01-10T13:59:44;2.8;36.0
79356;SHT31;68825;51.978;5.654;2024-01-10T14:02:14;2.8;36.9
79356;SHT31;68825;51.978;5.654;2024-01-10T14:04:45;2.9;37.9
79356;SHT31;68825;51.978;5.654;2024-01-10T14:07:13;2.9;37.0
79356;SHT31;68825;51.978;5.654;2024-01-10T14:09:42;2.9;35.6
79356;SHT31;68825;51.978;5.654;2024-01-10T14:12:14;3.0;36.3
79356;SHT31;68825;51.978;5.654;2024-01-10T14:14:46;3.0;35.8
79356;SHT31;68825;51.978;5.654;2024-01-10T14:17:15;3.0;36.5
79356;SHT31;68825;51.978;5.654;2024-01-10T14:19:43;3.0;36.6
79356;SHT31;68825;51.978;5.654;2024-01-10T14:22:14;3.0;36.3
79356;SHT31;68825;51.978;5.654;2024-01-10T14:24:43;2.9;35.5
79356;SHT31;68825;51.978;5.654;2024-01-10T14:27:12;2.9;36.9
79356;SHT31;68825;51.978;5.654;2024-01-10T14:29:41;2.8;37.6
79356;SHT31;68825;51.978;5.654;2024-01-10T14:32:10;2.8;37.2
79356;SHT31;68825;51.978;5.654;2024-01-10T14:34:41;2.8;37.1
79356;SHT31;68825;51.978;5.654;2024-01-10T14:37:11;2.8;37.0
79356;SHT31;68825;51.978;5.654;2024-01-10T14:39:41;2.8;38.0
79356;SHT31;68825;51.978;5.654;2024-01-10T14:42:12;2.8;37.5
79356;SHT31;68825;51.978;5.654;2024-01-10T14:44:42;2.8;36.9
79356;SHT31;68825;51.978;5.654;2024-01-10T14:47:11;2.8;37.2
79356;SHT31;68825;51.978;5.654;2024-01-10T14:49:40;2.7;36.7
79356;SHT31;68825;51.978;5.654;2024-01-10T14:52:09;2.7;36.9
79356;SHT31;68825;51.978;5.654;2024-01-10T14:54:37;2.7;37.4
79356;SHT31;68825;51.978;5.654;2024-01-10T14:57:06;2.6;38.0
79356;SHT31;68825;51.978;5.654;2024-01-10T14:59:35;2.6;37.5
79356;SHT31;68825;51.978;5.654;2024-01-10T15:02:05;2.6;37.8
79356;SHT31;68825;51.978;5.654;2024-01-10T15:04:38;2.5;37.7
79356;SHT31;68825;51.978;5.654;2024-01-10T15:07:08;2.5;37.6
79356;SHT31;68825;51.978;5.654;2024-01-10T15:09:37;2.5;37.7
79356;SHT31;68825;51.978;5.654;2024-01-10T15:12:07;2.4;38.5
79356;SHT31;68825;51.978;5.654;2024-01-10T15:14:42;2.4;38.2
79356;SHT31;68825;51.978;5.654;2024-01-10T15:17:11;2.4;38.0
79356;SHT31;68825;51.978;5.654;2024-01-10T15:19:40;2.4;38.1
79356;SHT31;68825;51.978;5.654;2024-01-10T15:22:08;2.3;39.0
79356;SHT31;68825;51.978;5.654;2024-01-10T15:24:37;2.3;38.2
79356;SHT31;68825;51.978;5.654;2024-01-10T15:27:07;2.3;38.1
79356;SHT31;68825;51.978;5.654;2024-01-10T15:29:37;2.3;38.4
79356;SHT31;68825;51.978;5.654;2024-01-10T15:32:07;2.2;38.7
79356;SHT31;68825;51.978;5.654;2024-01-10T15:34:36;2.2;38.5
79356;SHT31;68825;51.978;5.654;2024-01-10T15:37:05;2.2;38.9
79356;SHT31;68825;51.978;5.654;2024-01-10T15:39:33;2.2;38.8
79356;SHT31;68825;51.978;5.654;2024-01-10T15:42:02;2.2;39.4
79356;SHT31;68825;51.978;5.654;2024-01-10T15:44:33;2.2;39.3
79356;SHT31;68825;51.978;5.654;2024-01-10T15:47:02;2.2;38.9
79356;SHT31;68825;51.978;5.654;2024-01-10T15:49:30;2.2;38.9
79356;SHT31;68825;51.978;5.654;2024-01-10T15:51:59;2.2;39.3
79356;SHT31;68825;51.978;5.654;2024-01-10T15:54:27;2.1;39.1
79356;SHT31;68825;51.978;5.654;2024-01-10T15:56:58;2.1;39.1
79356;SHT31;68825;51.978;5.654;2024-01-10T15:59:26;2.1;39.2
79356;SHT31;68825;51.978;5.654;2024-01-10T16:01:55;2.0;39.3
79356;SHT31;68825;51.978;5.654;2024-01-10T16:04:23;2.0;39.5
79356;SHT31;68825;51.978;5.654;2024-01-10T16:06:52;2.0;39.6
79356;SHT31;68825;51.978;5.654;2024-01-10T16:09:20;2.0;39.4
79356;SHT31;68825;51.978;5.654;2024-01-10T16:11:50;1.9;40.2
79356;SHT31;68825;51.978;5.654;2024-01-10T16:14:18;1.9;40.1
79356;SHT31;68825;51.978;5.654;2024-01-10T16:16:47;1.9;40.9
79356;SHT31;68825;51.978;5.654;2024-01-10T16:19:15;1.9;40.3
79356;SHT31;68825;51.978;5.654;2024-01-10T16:21:44;1.9;40.6